createdAt,value
2023-11-24T00:02:07.301Z,2.50
2023-11-24T00:04:34.671Z,3.93
2023-11-24T00:07:03.370Z,2.50
2023-11-24T00:09:30.775Z,3.33
2023-11-24T00:12:00.010Z,2.37
2023-11-24T00:14:26.913Z,4.13
2023-11-24T00:16:53.769Z,4.83
2023-11-24T00:19:20.801Z,3.33
2023-11-24T00:21:51.262Z,4.03
2023-11-24T00:24:18.192Z,2.97
2023-11-24T00:26:45.160Z,3.73
2023-11-24T00:29:12.707Z,5.03
2023-11-24T00:31:39.547Z,2.43
2023-11-24T00:34:09.420Z,4.10
2023-11-24T00:36:36.660Z,3.73
2023-11-24T00:39:05.461Z,3.73
2023-11-24T00:41:32.315Z,5.90
2023-11-24T00:44:03.316Z,4.03
2023-11-24T00:46:30.818Z,3.90
2023-11-24T00:49:00.613Z,4.20
2023-11-24T00:51:27.551Z,2.33
2023-11-24T00:53:54.692Z,2.70
2023-11-24T00:56:21.885Z,8.23
2023-11-24T00:58:49.924Z,4.53
2023-11-24T01:01:16.922Z,5.07
2023-11-24T01:03:43.787Z,6.80
2023-11-24T01:06:10.645Z,4.30
2023-11-24T01:08:37.495Z,7.23
2023-11-24T01:11:04.297Z,4.00
2023-11-24T01:13:34.339Z,4.30
2023-11-24T01:16:01.445Z,2.17
2023-11-24T01:18:29.260Z,3.70
2023-11-24T01:20:56.357Z,2.73
2023-11-24T01:23:23.481Z,4.73
2023-11-24T01:25:50.363Z,4.50
2023-11-24T01:28:17.229Z,3.57
2023-11-24T01:30:44.666Z,2.93
2023-11-24T01:33:11.640Z,3.03
2023-11-24T01:35:38.559Z,2.77
2023-11-24T01:38:05.449Z,5.13
2023-11-24T01:40:32.460Z,3.80
2023-11-24T01:42:59.335Z,5.00
2023-11-24T01:45:26.306Z,5.03
2023-11-24T01:47:54.229Z,3.00
2023-11-24T01:50:21.157Z,5.93
2023-11-24T01:52:49.863Z,4.50
2023-11-24T01:55:17.934Z,1.73
2023-11-24T01:57:45.564Z,4.80
2023-11-24T02:00:14.911Z,2.17
2023-11-24T02:02:42.947Z,3.70
2023-11-24T02:05:10.529Z,3.43
2023-11-24T02:07:38.055Z,4.70
2023-11-24T02:10:05.579Z,2.07
2023-11-24T02:12:32.507Z,3.07
2023-11-24T02:14:59.406Z,2.97
2023-11-24T02:17:26.714Z,3.37
2023-11-24T02:19:53.601Z,2.30
2023-11-24T02:22:20.484Z,5.83
2023-11-24T02:24:47.323Z,2.67
2023-11-24T02:27:14.857Z,6.07
2023-11-24T02:29:41.700Z,5.90
2023-11-24T02:32:09.512Z,2.80
2023-11-24T02:34:36.594Z,4.43
2023-11-24T02:37:03.996Z,2.93
2023-11-24T02:39:30.983Z,1.57
2023-11-24T02:41:57.768Z,5.03
2023-11-24T02:44:24.664Z,4.53
2023-11-24T02:46:51.541Z,6.23
2023-11-24T02:49:18.835Z,8.77
2023-11-24T02:51:45.655Z,5.30
2023-11-24T02:54:12.529Z,3.00
2023-11-24T02:56:39.379Z,6.73
2023-11-24T02:59:06.160Z,3.73
2023-11-24T03:01:33.347Z,2.33
2023-11-24T03:04:00.284Z,3.67
2023-11-24T03:06:28.587Z,3.43
2023-11-24T03:08:55.556Z,3.30
2023-11-24T03:11:26.468Z,3.23
2023-11-24T03:13:53.350Z,2.60
2023-11-24T03:16:20.150Z,1.50
2023-11-24T03:18:47.021Z,3.17
2023-11-24T03:21:13.868Z,3.37
2023-11-24T03:23:40.799Z,2.97
2023-11-24T03:26:11.033Z,2.23
2023-11-24T03:28:38.757Z,3.57
2023-11-24T03:31:06.462Z,2.40
2023-11-24T03:33:34.587Z,2.07
2023-11-24T03:36:01.467Z,4.57
2023-11-24T03:38:28.301Z,5.37
2023-11-24T03:40:57.369Z,1.63
2023-11-24T03:43:24.633Z,1.97
2023-11-24T03:45:51.449Z,3.13
2023-11-24T03:48:22.746Z,2.33
2023-11-24T03:50:50.858Z,3.00
2023-11-24T03:53:17.692Z,3.23
2023-11-24T03:55:44.800Z,1.77
2023-11-24T03:58:11.681Z,1.63
2023-11-24T04:00:38.580Z,2.80
2023-11-24T04:03:05.809Z,3.97
2023-11-24T04:05:32.930Z,2.93
2023-11-24T04:07:59.778Z,2.60
2023-11-24T04:10:26.622Z,6.03
2023-11-24T04:12:53.524Z,3.37
2023-11-24T04:15:20.772Z,1.97
2023-11-24T04:17:48.134Z,1.90
2023-11-24T04:20:15.790Z,1.33
2023-11-24T04:22:42.688Z,1.63
2023-11-24T04:25:11.773Z,3.00
2023-11-24T04:27:39.046Z,1.83
2023-11-24T04:30:07.841Z,0.87
2023-11-24T04:32:34.685Z,0.83
2023-11-24T04:35:01.635Z,1.83
2023-11-24T04:37:28.891Z,1.63
2023-11-24T04:39:57.153Z,0.50
2023-11-24T04:42:26.144Z,1.40
2023-11-24T04:44:55.121Z,2.33
2023-11-24T04:47:22.167Z,1.13
2023-11-24T04:49:49.123Z,1.93
2023-11-24T04:52:15.973Z,1.27
2023-11-24T04:54:42.828Z,1.03
2023-11-24T04:57:11.215Z,2.33
2023-11-24T04:59:41.847Z,0.87
2023-11-24T05:02:09.008Z,0.40
2023-11-24T05:04:37.966Z,1.57
2023-11-24T05:07:05.480Z,0.83
2023-11-24T05:09:32.577Z,0.70
2023-11-24T05:11:59.471Z,1.60
2023-11-24T05:14:26.608Z,1.53
2023-11-24T05:16:53.538Z,1.00
2023-11-24T05:19:20.899Z,1.90
2023-11-24T05:21:47.726Z,0.63
2023-11-24T05:24:14.552Z,2.20
2023-11-24T05:26:41.399Z,1.87
2023-11-24T05:29:08.208Z,0.73
2023-11-24T05:31:35.067Z,0.70
2023-11-24T05:34:02.224Z,0.60
2023-11-24T05:36:29.361Z,0.70
2023-11-24T05:38:57.372Z,1.77
2023-11-24T05:41:24.187Z,1.57
2023-11-24T05:43:51.523Z,1.23
2023-11-24T05:46:18.359Z,2.17
2023-11-24T05:48:45.241Z,2.00
2023-11-24T05:51:12.131Z,1.43
2023-11-24T05:53:38.907Z,1.10
2023-11-24T05:56:08.922Z,1.33
2023-11-24T05:58:36.280Z,1.67
2023-11-24T06:01:03.435Z,1.40
2023-11-24T06:03:31.526Z,1.83
2023-11-24T06:05:58.403Z,6.20
2023-11-24T06:08:25.227Z,2.53
2023-11-24T06:10:52.178Z,1.60
2023-11-24T06:13:18.989Z,0.70
2023-11-24T06:15:45.952Z,1.13
2023-11-24T06:18:12.978Z,0.70
2023-11-24T06:20:39.844Z,3.33
2023-11-24T06:23:06.677Z,1.33
2023-11-24T06:25:33.492Z,3.17
2023-11-24T06:28:00.323Z,2.27
2023-11-24T06:30:27.263Z,1.57
2023-11-24T06:32:54.170Z,2.80
2023-11-24T06:35:22.187Z,1.67
2023-11-24T06:37:49.602Z,1.00
2023-11-24T06:40:16.706Z,3.23
2023-11-24T06:42:43.975Z,1.27
2023-11-24T06:45:14.053Z,3.80
2023-11-24T06:47:42.019Z,0.90
2023-11-24T06:50:10.742Z,0.60
2023-11-24T06:52:38.150Z,1.57
2023-11-24T06:55:05.430Z,3.77
2023-11-24T06:57:32.800Z,2.80
2023-11-24T06:59:59.700Z,2.17
2023-11-24T07:02:26.590Z,1.80
2023-11-24T07:04:54.253Z,1.10
2023-11-24T07:07:22.289Z,1.20
2023-11-24T07:09:49.273Z,2.83
2023-11-24T07:12:19.461Z,1.80
2023-11-24T07:14:47.232Z,2.50
2023-11-24T07:17:14.057Z,2.67
2023-11-24T07:19:42.623Z,5.00
2023-11-24T07:22:09.609Z,7.20
2023-11-24T07:24:44.245Z,6.47
2023-11-24T07:27:12.151Z,7.50
2023-11-24T07:29:38.937Z,6.77
2023-11-24T07:32:05.957Z,6.57
2023-11-24T07:34:32.969Z,8.77
2023-11-24T07:37:03.343Z,5.93
2023-11-24T07:39:31.729Z,3.87
2023-11-24T07:42:00.028Z,4.17
2023-11-24T07:44:32.766Z,4.20
2023-11-24T07:47:00.130Z,4.10
2023-11-24T07:49:27.163Z,2.87
2023-11-24T07:51:54.405Z,2.83
2023-11-24T07:54:21.459Z,5.30
2023-11-24T07:56:48.420Z,2.20
2023-11-24T07:59:15.393Z,3.90
2023-11-24T08:01:42.592Z,4.43
2023-11-24T08:04:09.927Z,4.87
2023-11-24T08:06:36.936Z,4.57
2023-11-24T08:09:09.480Z,14.30
2023-11-24T08:11:36.482Z,11.40
2023-11-24T08:14:03.811Z,10.53
2023-11-24T08:16:30.856Z,10.60
2023-11-24T08:18:57.750Z,7.80
2023-11-24T08:21:24.745Z,9.37
2023-11-24T08:23:51.612Z,6.23
2023-11-24T08:26:19.462Z,3.73
2023-11-24T08:28:46.697Z,7.87
2023-11-24T08:31:22.014Z,8.07
2023-11-24T08:33:50.294Z,4.20
2023-11-24T08:36:17.397Z,5.53
2023-11-24T08:38:46.177Z,9.60
2023-11-24T08:41:30.382Z,8.23
2023-11-24T08:44:02.512Z,4.27
2023-11-24T08:46:30.031Z,7.07
2023-11-24T08:48:57.559Z,4.07
2023-11-24T08:51:24.427Z,5.53
2023-11-24T08:53:51.271Z,8.43
2023-11-24T08:56:18.090Z,6.57
2023-11-24T08:58:44.919Z,5.07
2023-11-24T09:01:14.614Z,8.20
2023-11-24T09:03:41.554Z,4.57
2023-11-24T09:06:08.614Z,5.40
2023-11-24T09:08:35.468Z,6.27
2023-11-24T09:11:02.916Z,6.47
2023-11-24T09:13:29.748Z,3.73
2023-11-24T09:15:56.665Z,5.37
2023-11-24T09:18:23.953Z,3.37
2023-11-24T09:20:50.933Z,10.27
2023-11-24T09:23:18.214Z,33.00
2023-11-24T09:25:45.142Z,38.20
2023-11-24T09:28:12.215Z,75.13
2023-11-24T09:30:39.890Z,59.87
2023-11-24T09:33:09.092Z,103.10
2023-11-24T09:35:36.251Z,68.93
2023-11-24T09:38:03.061Z,93.87
2023-11-24T09:40:32.133Z,103.20
2023-11-24T09:43:05.277Z,117.07
2023-11-24T09:45:32.657Z,95.83
2023-11-24T09:48:00.427Z,104.17
2023-11-24T09:50:28.425Z,134.03
2023-11-24T09:52:57.269Z,136.73
2023-11-24T09:55:30.498Z,125.70
2023-11-24T09:57:58.760Z,95.20
2023-11-24T10:00:27.763Z,86.30
2023-11-24T10:02:59.318Z,75.60
2023-11-24T10:05:27.654Z,67.33
2023-11-24T10:07:54.691Z,54.67
2023-11-24T10:10:27.332Z,49.83
2023-11-24T10:13:00.924Z,34.37
2023-11-24T10:15:28.003Z,34.57
2023-11-24T10:17:55.039Z,25.80
2023-11-24T10:20:24.133Z,25.30
2023-11-24T10:22:51.508Z,27.07
2023-11-24T10:25:22.605Z,18.93
2023-11-24T10:27:49.997Z,14.97
2023-11-24T10:30:19.906Z,12.73
2023-11-24T10:32:50.166Z,9.30
2023-11-24T10:35:17.137Z,14.83
2023-11-24T10:37:46.012Z,11.50
2023-11-24T10:40:16.832Z,6.87
2023-11-24T10:42:49.531Z,10.03
2023-11-24T10:45:21.012Z,10.33
2023-11-24T10:48:13.533Z,7.80
2023-11-24T10:50:43.259Z,9.87
2023-11-24T10:53:24.966Z,9.30
2023-11-24T10:55:54.367Z,9.33
2023-11-24T10:58:22.730Z,9.43
2023-11-24T11:00:49.897Z,10.10
2023-11-24T11:03:17.982Z,9.00
2023-11-24T11:05:50.670Z,5.67
2023-11-24T11:08:35.939Z,4.93
2023-11-24T11:11:02.859Z,9.60
2023-11-24T11:13:31.445Z,11.00
2023-11-24T11:15:58.341Z,15.23
2023-11-24T11:18:26.714Z,10.50
2023-11-24T11:20:53.846Z,10.10
2023-11-24T11:23:21.087Z,14.37
2023-11-24T11:25:52.063Z,15.03
2023-11-24T11:28:19.289Z,13.43
2023-11-24T11:30:50.164Z,13.50
2023-11-24T11:33:21.141Z,13.27
2023-11-24T11:35:50.270Z,13.93
2023-11-24T11:38:36.666Z,27.63
2023-11-24T11:41:06.098Z,43.57
2023-11-24T11:43:32.975Z,35.20
2023-11-24T11:46:01.265Z,40.63
2023-11-24T11:48:37.298Z,53.83
2023-11-24T11:51:05.664Z,76.07
2023-11-24T11:53:35.371Z,61.67
2023-11-24T11:56:12.097Z,55.67
2023-11-24T11:58:40.025Z,44.23
2023-11-24T12:01:08.183Z,25.00
2023-11-24T12:03:35.948Z,26.47
2023-11-24T12:06:07.206Z,32.87
2023-11-24T12:08:42.602Z,19.90
2023-11-24T12:11:09.921Z,19.13
2023-11-24T12:13:40.555Z,28.13
2023-11-24T12:16:08.225Z,21.70
2023-11-24T12:18:37.344Z,12.27
2023-11-24T12:21:04.473Z,20.60
2023-11-24T12:23:31.448Z,12.20
2023-11-24T12:25:58.315Z,8.33
2023-11-24T12:28:25.178Z,9.50
2023-11-24T12:30:51.997Z,8.27
2023-11-24T12:33:23.555Z,8.60
2023-11-24T12:35:52.068Z,3.23
2023-11-24T12:38:19.665Z,5.53
2023-11-24T12:40:46.910Z,5.43
2023-11-24T12:43:18.504Z,7.53
2023-11-24T12:45:49.502Z,4.63
2023-11-24T12:48:23.149Z,3.33
2023-11-24T12:50:51.129Z,6.13
2023-11-24T12:53:21.590Z,5.60
2023-11-24T12:55:48.607Z,4.60
2023-11-24T12:58:15.960Z,4.37
2023-11-24T13:00:46.819Z,5.60
2023-11-24T13:03:13.819Z,10.33
2023-11-24T13:05:40.693Z,9.67
2023-11-24T13:08:08.311Z,6.77
2023-11-24T13:10:37.249Z,6.57
2023-11-24T13:13:04.152Z,5.53
2023-11-24T13:15:31.068Z,4.43
2023-11-24T13:17:57.957Z,5.17
2023-11-24T13:20:30.205Z,3.67
2023-11-24T13:22:57.691Z,3.40
2023-11-24T13:25:28.208Z,3.53
2023-11-24T13:27:55.518Z,1.93
2023-11-24T13:30:23.449Z,1.40
2023-11-24T13:32:50.758Z,1.63
2023-11-24T13:35:17.844Z,3.23
2023-11-24T13:37:46.175Z,3.97
2023-11-24T13:40:20.707Z,3.70
2023-11-24T13:42:47.955Z,3.63
2023-11-24T13:45:14.955Z,2.10
2023-11-24T13:47:42.836Z,2.30
2023-11-24T13:50:10.672Z,1.90
2023-11-24T13:52:37.648Z,1.70
2023-11-24T13:55:07.701Z,1.67
2023-11-24T13:57:35.056Z,1.47
2023-11-24T14:00:02.030Z,2.47
2023-11-24T14:02:29.137Z,5.93
2023-11-24T14:04:56.075Z,5.67
2023-11-24T14:07:23.185Z,10.13
2023-11-24T14:09:50.267Z,14.90
2023-11-24T14:12:17.120Z,14.80
2023-11-24T14:14:44.777Z,25.80
2023-11-24T14:17:13.468Z,30.03
2023-11-24T14:19:40.365Z,32.17
2023-11-24T14:22:08.769Z,34.50
2023-11-24T14:24:35.754Z,53.63
2023-11-24T14:27:02.659Z,54.87
2023-11-24T14:29:32.630Z,47.90
2023-11-24T14:31:59.586Z,30.67
2023-11-24T14:34:26.408Z,26.60
2023-11-24T14:36:53.282Z,18.57
2023-11-24T14:39:33.138Z,19.73
2023-11-24T14:42:00.700Z,28.57
2023-11-24T14:44:27.739Z,25.73
2023-11-24T14:46:54.722Z,31.20
2023-11-24T14:49:21.953Z,26.13
2023-11-24T14:51:50.043Z,25.47
2023-11-24T14:54:18.102Z,29.20
2023-11-24T14:56:46.825Z,32.43
2023-11-24T14:59:13.900Z,51.90
2023-11-24T15:01:44.336Z,83.37
2023-11-24T15:04:18.829Z,86.50
2023-11-24T15:06:51.760Z,77.47
2023-11-24T15:09:20.161Z,77.40
2023-11-24T15:11:49.784Z,59.20
2023-11-24T15:14:16.673Z,53.60
2023-11-24T15:17:13.217Z,59.50
2023-11-24T15:19:40.695Z,65.13
2023-11-24T15:22:10.944Z,66.63
2023-11-24T15:24:40.021Z,61.13
2023-11-24T15:27:09.216Z,54.20
2023-11-24T15:29:38.861Z,40.20
2023-11-24T15:32:09.101Z,35.30
2023-11-24T15:34:36.553Z,30.17
2023-11-24T15:37:05.316Z,24.17
2023-11-24T15:39:42.732Z,22.50
2023-11-24T15:42:10.474Z,21.67
2023-11-24T15:44:40.530Z,14.33
2023-11-24T15:47:12.468Z,11.17
2023-11-24T15:49:43.299Z,13.63
2023-11-24T15:52:13.959Z,14.30
2023-11-24T15:54:42.011Z,11.70
2023-11-24T15:57:10.205Z,14.13
2023-11-24T15:59:43.618Z,11.27
2023-11-24T16:02:13.642Z,10.20
2023-11-24T16:04:44.139Z,12.23
2023-11-24T16:07:11.696Z,7.23
2023-11-24T16:09:39.028Z,7.43
2023-11-24T16:12:13.844Z,7.10
2023-11-24T16:14:41.230Z,7.20
2023-11-24T16:17:11.192Z,5.30
2023-11-24T16:19:38.342Z,8.57
2023-11-24T16:22:06.598Z,9.07
2023-11-24T16:24:33.942Z,5.00
2023-11-24T16:27:03.971Z,5.57
2023-11-24T16:29:30.970Z,4.40
2023-11-24T16:32:00.863Z,6.40
2023-11-24T16:34:28.380Z,7.67
2023-11-24T16:36:59.392Z,5.90
2023-11-24T16:39:29.079Z,8.33
2023-11-24T16:41:56.454Z,8.27
2023-11-24T16:44:24.207Z,4.40
2023-11-24T16:46:59.376Z,6.50
2023-11-24T16:49:27.014Z,7.80
2023-11-24T16:51:54.320Z,12.63
2023-11-24T16:54:21.412Z,8.23
2023-11-24T16:56:48.531Z,9.27
2023-11-24T16:59:19.432Z,6.83
2023-11-24T17:01:46.366Z,8.27
2023-11-24T17:04:13.823Z,7.63
2023-11-24T17:06:40.779Z,15.13
2023-11-24T17:09:12.831Z,29.87
2023-11-24T17:11:43.204Z,31.50
2023-11-24T17:14:10.119Z,28.47
2023-11-24T17:16:40.517Z,21.23
2023-11-24T17:19:07.463Z,15.57
2023-11-24T17:21:34.322Z,14.77
2023-11-24T17:24:01.172Z,14.00
2023-11-24T17:26:28.996Z,17.57
2023-11-24T17:28:57.816Z,58.87
2023-11-24T17:31:25.677Z,55.70
2023-11-24T17:33:53.469Z,45.03
2023-11-24T17:36:21.363Z,34.17
2023-11-24T17:38:49.570Z,24.73
2023-11-24T17:41:16.439Z,20.83
2023-11-24T17:43:43.658Z,17.40
2023-11-24T17:46:10.575Z,20.47
2023-11-24T17:48:37.471Z,14.70
2023-11-24T17:51:04.772Z,14.93
2023-11-24T17:53:31.606Z,17.33
2023-11-24T17:56:02.266Z,9.33
2023-11-24T17:58:29.390Z,12.47
2023-11-24T18:00:59.138Z,9.37
2023-11-24T18:03:26.093Z,12.10
2023-11-24T18:05:52.994Z,7.93
2023-11-24T18:08:23.633Z,8.13
2023-11-24T18:10:50.832Z,11.23
2023-11-24T18:13:18.410Z,19.20
2023-11-24T18:15:45.443Z,13.07
2023-11-24T18:18:13.031Z,14.27
2023-11-24T18:20:41.430Z,11.03
2023-11-24T18:23:08.402Z,12.47
2023-11-24T18:25:39.756Z,11.93
2023-11-24T18:28:10.372Z,13.70
2023-11-24T18:30:38.785Z,13.60
2023-11-24T18:33:11.523Z,11.50
2023-11-24T18:35:39.770Z,12.63
2023-11-24T18:38:06.690Z,10.77
2023-11-24T18:40:33.598Z,13.03
2023-11-24T18:43:00.408Z,8.37
2023-11-24T18:45:27.266Z,11.00
2023-11-24T18:47:54.180Z,10.70
2023-11-24T18:50:21.505Z,12.27
2023-11-24T18:52:48.377Z,13.63
2023-11-24T18:55:15.375Z,11.47
2023-11-24T18:57:46.890Z,15.27
2023-11-24T19:00:19.657Z,18.40
2023-11-24T19:02:48.069Z,16.57
2023-11-24T19:05:14.976Z,17.93
2023-11-24T19:07:44.935Z,21.20
2023-11-24T19:10:12.071Z,17.13
2023-11-24T19:12:39.387Z,15.00
2023-11-24T19:15:11.724Z,14.43
2023-11-24T19:17:39.985Z,15.97
2023-11-24T19:20:08.847Z,15.77
2023-11-24T19:22:36.546Z,11.20
2023-11-24T19:25:03.728Z,14.27
2023-11-24T19:27:30.573Z,11.93
2023-11-24T19:29:57.505Z,12.47
2023-11-24T19:32:26.008Z,12.87
2023-11-24T19:34:54.099Z,11.17
2023-11-24T19:37:21.035Z,17.17
2023-11-24T19:39:49.533Z,10.77
2023-11-24T19:42:19.013Z,9.73
2023-11-24T19:44:48.105Z,9.27
2023-11-24T19:47:15.083Z,13.37
2023-11-24T19:49:42.226Z,12.40
2023-11-24T19:52:10.678Z,11.77
2023-11-24T19:54:38.981Z,14.00
2023-11-24T19:57:06.100Z,9.43
2023-11-24T19:59:32.957Z,8.87
2023-11-24T20:02:00.212Z,13.30
2023-11-24T20:04:28.980Z,10.33
2023-11-24T20:06:55.886Z,11.73
2023-11-24T20:09:23.754Z,8.73
2023-11-24T20:11:52.880Z,13.37
2023-11-24T20:14:19.758Z,7.83
2023-11-24T20:16:51.412Z,11.13
2023-11-24T20:19:18.668Z,9.53
2023-11-24T20:21:45.476Z,11.33
2023-11-24T20:24:12.282Z,17.23
2023-11-24T20:26:41.330Z,9.57
2023-11-24T20:29:09.109Z,10.47
2023-11-24T20:31:36.268Z,6.50
2023-11-24T20:34:03.327Z,8.30
2023-11-24T20:36:30.186Z,13.27
2023-11-24T20:38:58.776Z,18.10
2023-11-24T20:41:25.741Z,13.07
2023-11-24T20:43:55.141Z,13.47
2023-11-24T20:46:22.260Z,12.13
2023-11-24T20:48:49.219Z,13.10
2023-11-24T20:51:16.874Z,12.90
2023-11-24T20:53:43.797Z,12.73
2023-11-24T20:56:11.871Z,17.33
2023-11-24T20:58:39.466Z,9.70
2023-11-24T21:01:06.934Z,10.90
2023-11-24T21:03:33.950Z,12.43
2023-11-24T21:06:00.919Z,17.90
2023-11-24T21:08:28.324Z,10.47
2023-11-24T21:10:55.580Z,9.83
2023-11-24T21:13:23.647Z,10.23
2023-11-24T21:15:50.953Z,11.10
2023-11-24T21:18:18.034Z,11.07
2023-11-24T21:20:44.988Z,9.43
2023-11-24T21:23:13.246Z,8.70
2023-11-24T21:25:40.463Z,9.13
2023-11-24T21:28:09.150Z,10.33
2023-11-24T21:30:36.045Z,8.20
2023-11-24T21:33:03.151Z,11.00
2023-11-24T21:35:32.229Z,10.17
2023-11-24T21:37:59.305Z,8.47
2023-11-24T21:40:26.342Z,11.47
2023-11-24T21:42:53.376Z,10.37
2023-11-24T21:45:20.229Z,9.93
2023-11-24T21:47:47.404Z,7.00
2023-11-24T21:50:14.875Z,13.43
2023-11-24T21:52:42.261Z,10.70
2023-11-24T21:55:10.873Z,11.27
2023-11-24T21:57:37.836Z,6.80
2023-11-24T22:00:08.392Z,6.80
2023-11-24T22:02:40.725Z,8.57
2023-11-24T22:05:10.861Z,9.20
2023-11-24T22:07:38.554Z,5.10
2023-11-24T22:10:06.643Z,10.47
2023-11-24T22:12:37.224Z,8.37
2023-11-24T22:15:05.412Z,7.73
2023-11-24T22:17:34.104Z,7.03
2023-11-24T22:20:07.780Z,6.30
2023-11-24T22:22:34.890Z,7.57
2023-11-24T22:25:01.887Z,6.37
2023-11-24T22:27:28.778Z,6.37
2023-11-24T22:30:03.668Z,8.27
2023-11-24T22:32:33.422Z,7.37
2023-11-24T22:35:00.863Z,9.23
2023-11-24T22:37:28.374Z,7.73
2023-11-24T22:39:55.241Z,6.47
2023-11-24T22:42:23.398Z,8.93
2023-11-24T22:44:51.520Z,9.97
2023-11-24T22:47:19.216Z,8.50
2023-11-24T22:49:46.460Z,7.30
2023-11-24T22:52:13.315Z,5.93
2023-11-24T22:54:40.569Z,7.97
2023-11-24T22:57:08.158Z,8.57
2023-11-24T22:59:34.982Z,5.60
2023-11-24T23:02:01.947Z,10.17
2023-11-24T23:04:28.900Z,7.83
2023-11-24T23:06:55.818Z,7.80
2023-11-24T23:09:23.029Z,8.60
2023-11-24T23:11:50.292Z,6.47
2023-11-24T23:14:17.234Z,10.97
2023-11-24T23:16:45.471Z,5.90
2023-11-24T23:19:13.234Z,8.27
2023-11-24T23:21:42.208Z,6.40
2023-11-24T23:24:12.202Z,7.90
2023-11-24T23:26:39.858Z,10.70
2023-11-24T23:29:08.098Z,11.00
2023-11-24T23:31:35.419Z,6.70
2023-11-24T23:34:02.800Z,5.20
2023-11-24T23:36:29.845Z,10.93
2023-11-24T23:38:56.767Z,8.77
2023-11-24T23:41:23.984Z,9.77
2023-11-24T23:43:50.974Z,8.13
2023-11-24T23:46:18.067Z,6.27
2023-11-24T23:48:44.991Z,8.20
2023-11-24T23:51:12.585Z,5.43
2023-11-24T23:53:41.021Z,5.87
2023-11-24T23:56:08.517Z,8.43
2023-11-24T23:58:37.570Z,9.43
